sensor_id;sensor_type;location;lat;lon;timestamp;P1;durP1;ratioP1;P2;durP2;ratioP2
9106;SDS011;4589;48.690;8.952;2022-09-27T00:00:27;5.57;;;1.93;;
9106;SDS011;4589;48.690;8.952;2022-09-27T00:02:53;2.00;;;1.80;;
9106;SDS011;4589;48.690;8.952;2022-09-27T00:05:19;2.13;;;1.97;;
9106;SDS011;4589;48.690;8.952;2022-09-27T00:07:44;1.83;;;1.73;;
9106;SDS011;4589;48.690;8.952;2022-09-27T00:10:10;2.13;;;1.70;;
9106;SDS011;4589;48.690;8.952;2022-09-27T00:12:36;2.77;;;1.73;;
9106;SDS011;4589;48.690;8.952;2022-09-27T00:15:03;1.40;;;1.30;;
9106;SDS011;4589;48.690;8.952;2022-09-27T00:17:30;2.60;;;1.70;;
9106;SDS011;4589;48.690;8.952;2022-09-27T00:19:57;1.83;;;1.37;;
9106;SDS011;4589;48.690;8.952;2022-09-27T00:22:24;3.73;;;2.17;;
9106;SDS011;4589;48.690;8.952;2022-09-27T00:24:50;2.00;;;1.53;;
9106;SDS011;4589;48.690;8.952;2022-09-27T00:27:16;1.77;;;1.40;;
9106;SDS011;4589;48.690;8.952;2022-09-27T00:29:43;1.93;;;1.60;;
9106;SDS011;4589;48.690;8.952;2022-09-27T00:32:09;1.70;;;1.60;;
9106;SDS011;4589;48.690;8.952;2022-09-27T00:34:35;2.03;;;1.57;;
9106;SDS011;4589;48.690;8.952;2022-09-27T00:37:01;1.63;;;1.47;;
9106;SDS011;4589;48.690;8.952;2022-09-27T00:39:26;2.47;;;1.97;;
9106;SDS011;4589;48.690;8.952;2022-09-27T00:41:53;1.73;;;1.63;;
9106;SDS011;4589;48.690;8.952;2022-09-27T00:47:13;2.53;;;1.80;;
9106;SDS011;4589;48.690;8.952;2022-09-27T00:49:57;3.37;;;1.93;;
9106;SDS011;4589;48.690;8.952;2022-09-27T00:55:21;1.60;;;1.50;;
9106;SDS011;4589;48.690;8.952;2022-09-27T00:57:49;3.00;;;1.83;;
9106;SDS011;4589;48.690;8.952;2022-09-27T01:00:16;2.37;;;2.17;;
9106;SDS011;4589;48.690;8.952;2022-09-27T01:02:46;3.20;;;1.70;;
9106;SDS011;4589;48.690;8.952;2022-09-27T01:05:14;3.40;;;1.57;;
9106;SDS011;4589;48.690;8.952;2022-09-27T01:07:41;3.33;;;1.50;;
9106;SDS011;4589;48.690;8.952;2022-09-27T01:10:07;1.73;;;1.63;;
9106;SDS011;4589;48.690;8.952;2022-09-27T01:17:59;2.10;;;1.80;;
9106;SDS011;4589;48.690;8.952;2022-09-27T01:20:37;2.27;;;2.07;;
9106;SDS011;4589;48.690;8.952;2022-09-27T01:36:03;1.50;;;1.40;;
9106;SDS011;4589;48.690;8.952;2022-09-27T01:41:05;1.97;;;1.70;;
9106;SDS011;4589;48.690;8.952;2022-09-27T01:46:54;1.43;;;1.33;;
9106;SDS011;4589;48.690;8.952;2022-09-27T01:49:25;1.97;;;1.50;;
9106;SDS011;4589;48.690;8.952;2022-09-27T01:51:54;6.60;;;1.33;;
9106;SDS011;4589;48.690;8.952;2022-09-27T01:54:27;1.50;;;1.23;;
9106;SDS011;4589;48.690;8.952;2022-09-27T01:56:58;1.30;;;1.20;;
9106;SDS011;4589;48.690;8.952;2022-09-27T01:59:28;3.60;;;1.40;;
9106;SDS011;4589;48.690;8.952;2022-09-27T02:02:01;1.27;;;1.17;;
9106;SDS011;4589;48.690;8.952;2022-09-27T02:04:32;1.37;;;1.10;;
9106;SDS011;4589;48.690;8.952;2022-09-27T02:07:02;8.10;;;1.60;;
9106;SDS011;4589;48.690;8.952;2022-09-27T02:09:44;2.33;;;1.20;;
9106;SDS011;4589;48.690;8.952;2022-09-27T02:12:12;2.60;;;1.50;;
9106;SDS011;4589;48.690;8.952;2022-09-27T02:14:42;1.83;;;1.30;;
9106;SDS011;4589;48.690;8.952;2022-09-27T02:20:19;4.10;;;1.40;;
9106;SDS011;4589;48.690;8.952;2022-09-27T02:28:20;1.40;;;1.10;;
9106;SDS011;4589;48.690;8.952;2022-09-27T02:31:05;2.53;;;1.30;;
9106;SDS011;4589;48.690;8.952;2022-09-27T02:33:36;1.20;;;1.10;;
9106;SDS011;4589;48.690;8.952;2022-09-27T02:36:09;1.50;;;1.10;;
9106;SDS011;4589;48.690;8.952;2022-09-27T02:38:35;2.80;;;1.00;;
9106;SDS011;4589;48.690;8.952;2022-09-27T02:41:01;1.00;;;0.87;;
9106;SDS011;4589;48.690;8.952;2022-09-27T02:43:28;1.27;;;0.87;;
9106;SDS011;4589;48.690;8.952;2022-09-27T02:54:21;1.33;;;1.07;;
9106;SDS011;4589;48.690;8.952;2022-09-27T02:59:52;1.00;;;0.90;;
9106;SDS011;4589;48.690;8.952;2022-09-27T03:05:05;1.57;;;1.00;;
9106;SDS011;4589;48.690;8.952;2022-09-27T03:07:34;1.63;;;1.50;;
9106;SDS011;4589;48.690;8.952;2022-09-27T03:10:02;1.83;;;1.47;;
9106;SDS011;4589;48.690;8.952;2022-09-27T03:12:28;2.37;;;1.50;;
9106;SDS011;4589;48.690;8.952;2022-09-27T03:14:55;2.03;;;1.57;;
9106;SDS011;4589;48.690;8.952;2022-09-27T03:17:21;2.27;;;1.57;;
9106;SDS011;4589;48.690;8.952;2022-09-27T03:19:47;3.40;;;2.00;;
9106;SDS011;4589;48.690;8.952;2022-09-27T03:22:13;1.60;;;1.37;;
9106;SDS011;4589;48.690;8.952;2022-09-27T03:24:40;4.30;;;2.10;;
9106;SDS011;4589;48.690;8.952;2022-09-27T03:27:06;3.93;;;2.80;;
9106;SDS011;4589;48.690;8.952;2022-09-27T03:29:32;3.50;;;2.00;;
9106;SDS011;4589;48.690;8.952;2022-09-27T03:31:58;3.57;;;1.90;;
9106;SDS011;4589;48.690;8.952;2022-09-27T03:34:24;3.50;;;2.67;;
9106;SDS011;4589;48.690;8.952;2022-09-27T03:36:50;2.47;;;2.00;;
9106;SDS011;4589;48.690;8.952;2022-09-27T03:39:16;2.10;;;1.90;;
9106;SDS011;4589;48.690;8.952;2022-09-27T03:41:42;3.57;;;2.87;;
9106;SDS011;4589;48.690;8.952;2022-09-27T03:44:08;6.23;;;3.17;;
9106;SDS011;4589;48.690;8.952;2022-09-27T03:46:34;5.97;;;3.10;;
9106;SDS011;4589;48.690;8.952;2022-09-27T03:49:00;4.20;;;3.07;;
9106;SDS011;4589;48.690;8.952;2022-09-27T03:51:26;6.60;;;3.23;;
9106;SDS011;4589;48.690;8.952;2022-09-27T03:53:51;7.63;;;3.27;;
9106;SDS011;4589;48.690;8.952;2022-09-27T03:56:17;5.50;;;2.73;;
9106;SDS011;4589;48.690;8.952;2022-09-27T03:58:43;6.20;;;2.70;;
9106;SDS011;4589;48.690;8.952;2022-09-27T04:01:09;6.30;;;3.43;;
9106;SDS011;4589;48.690;8.952;2022-09-27T04:03:35;8.70;;;3.30;;
9106;SDS011;4589;48.690;8.952;2022-09-27T04:06:01;4.50;;;2.73;;
9106;SDS011;4589;48.690;8.952;2022-09-27T04:08:28;5.83;;;3.40;;
9106;SDS011;4589;48.690;8.952;2022-09-27T04:10:54;13.17;;;4.27;;
9106;SDS011;4589;48.690;8.952;2022-09-27T04:13:20;8.93;;;2.77;;
9106;SDS011;4589;48.690;8.952;2022-09-27T04:15:45;7.37;;;3.60;;
9106;SDS011;4589;48.690;8.952;2022-09-27T04:18:11;7.10;;;3.70;;
9106;SDS011;4589;48.690;8.952;2022-09-27T04:20:37;4.70;;;3.03;;
9106;SDS011;4589;48.690;8.952;2022-09-27T04:23:03;13.00;;;3.80;;
9106;SDS011;4589;48.690;8.952;2022-09-27T04:25:29;11.60;;;4.03;;
9106;SDS011;4589;48.690;8.952;2022-09-27T04:27:57;3.33;;;2.60;;
9106;SDS011;4589;48.690;8.952;2022-09-27T04:30:23;3.00;;;2.30;;
9106;SDS011;4589;48.690;8.952;2022-09-27T04:32:50;5.50;;;2.90;;
9106;SDS011;4589;48.690;8.952;2022-09-27T04:35:16;8.40;;;3.03;;
9106;SDS011;4589;48.690;8.952;2022-09-27T04:38:01;12.60;;;2.80;;
9106;SDS011;4589;48.690;8.952;2022-09-27T04:40:27;4.40;;;3.20;;
9106;SDS011;4589;48.690;8.952;2022-09-27T04:42:53;6.00;;;3.10;;
9106;SDS011;4589;48.690;8.952;2022-09-27T04:45:19;3.50;;;2.40;;
9106;SDS011;4589;48.690;8.952;2022-09-27T04:47:46;4.20;;;2.73;;
9106;SDS011;4589;48.690;8.952;2022-09-27T04:50:13;4.40;;;2.20;;
9106;SDS011;4589;48.690;8.952;2022-09-27T04:52:41;3.47;;;2.17;;
9106;SDS011;4589;48.690;8.952;2022-09-27T04:55:07;3.57;;;2.27;;
9106;SDS011;4589;48.690;8.952;2022-09-27T04:57:34;2.20;;;2.00;;
9106;SDS011;4589;48.690;8.952;2022-09-27T05:00:00;4.40;;;2.20;;
9106;SDS011;4589;48.690;8.952;2022-09-27T05:02:26;3.10;;;2.10;;
9106;SDS011;4589;48.690;8.952;2022-09-27T05:04:53;2.33;;;1.87;;
9106;SDS011;4589;48.690;8.952;2022-09-27T05:07:23;5.43;;;2.40;;
9106;SDS011;4589;48.690;8.952;2022-09-27T05:09:49;3.00;;;2.33;;
9106;SDS011;4589;48.690;8.952;2022-09-27T05:12:15;2.33;;;1.87;;
9106;SDS011;4589;48.690;8.952;2022-09-27T05:14:40;4.03;;;2.00;;
9106;SDS011;4589;48.690;8.952;2022-09-27T05:17:06;1.77;;;1.60;;
9106;SDS011;4589;48.690;8.952;2022-09-27T05:19:33;7.70;;;2.00;;
9106;SDS011;4589;48.690;8.952;2022-09-27T05:21:59;7.10;;;2.20;;
9106;SDS011;4589;48.690;8.952;2022-09-27T05:24:25;2.17;;;1.90;;
9106;SDS011;4589;48.690;8.952;2022-09-27T05:26:56;9.23;;;2.20;;
9106;SDS011;4589;48.690;8.952;2022-09-27T05:29:22;4.83;;;1.77;;
9106;SDS011;4589;48.690;8.952;2022-09-27T05:31:47;3.43;;;1.97;;
9106;SDS011;4589;48.690;8.952;2022-09-27T05:34:14;4.83;;;2.07;;
9106;SDS011;4589;48.690;8.952;2022-09-27T05:36:39;2.47;;;2.13;;
9106;SDS011;4589;48.690;8.952;2022-09-27T05:39:05;6.47;;;2.03;;
9106;SDS011;4589;48.690;8.952;2022-09-27T05:41:32;1.87;;;1.67;;
9106;SDS011;4589;48.690;8.952;2022-09-27T05:43:58;1.80;;;1.53;;
9106;SDS011;4589;48.690;8.952;2022-09-27T05:46:23;2.27;;;1.53;;
9106;SDS011;4589;48.690;8.952;2022-09-27T05:48:49;3.00;;;1.60;;
9106;SDS011;4589;48.690;8.952;2022-09-27T05:51:15;2.37;;;1.60;;
9106;SDS011;4589;48.690;8.952;2022-09-27T05:53:40;1.23;;;1.13;;
9106;SDS011;4589;48.690;8.952;2022-09-27T05:56:06;2.57;;;1.70;;
9106;SDS011;4589;48.690;8.952;2022-09-27T05:58:32;2.57;;;1.50;;
9106;SDS011;4589;48.690;8.952;2022-09-27T06:00:58;2.47;;;1.53;;
9106;SDS011;4589;48.690;8.952;2022-09-27T06:03:24;2.03;;;1.37;;
9106;SDS011;4589;48.690;8.952;2022-09-27T06:05:49;3.50;;;1.00;;
9106;SDS011;4589;48.690;8.952;2022-09-27T06:08:15;2.07;;;1.10;;
9106;SDS011;4589;48.690;8.952;2022-09-27T06:10:42;3.73;;;1.47;;
9106;SDS011;4589;48.690;8.952;2022-09-27T06:13:10;1.63;;;1.53;;
9106;SDS011;4589;48.690;8.952;2022-09-27T06:15:37;2.07;;;1.27;;
9106;SDS011;4589;48.690;8.952;2022-09-27T06:18:08;1.53;;;1.43;;
9106;SDS011;4589;48.690;8.952;2022-09-27T06:20:40;1.77;;;1.20;;
9106;SDS011;4589;48.690;8.952;2022-09-27T06:23:11;1.43;;;1.33;;
9106;SDS011;4589;48.690;8.952;2022-09-27T06:25:37;2.07;;;1.40;;
9106;SDS011;4589;48.690;8.952;2022-09-27T06:28:03;1.30;;;1.20;;
9106;SDS011;4589;48.690;8.952;2022-09-27T06:30:29;2.40;;;1.40;;
9106;SDS011;4589;48.690;8.952;2022-09-27T06:32:58;1.50;;;1.30;;
9106;SDS011;4589;48.690;8.952;2022-09-27T06:35:25;1.70;;;0.93;;
9106;SDS011;4589;48.690;8.952;2022-09-27T06:37:51;1.50;;;1.20;;
9106;SDS011;4589;48.690;8.952;2022-09-27T06:40:18;1.43;;;1.30;;
9106;SDS011;4589;48.690;8.952;2022-09-27T06:42:44;1.70;;;1.30;;
9106;SDS011;4589;48.690;8.952;2022-09-27T06:45:10;1.37;;;1.20;;
9106;SDS011;4589;48.690;8.952;2022-09-27T06:47:36;1.47;;;1.00;;
9106;SDS011;4589;48.690;8.952;2022-09-27T06:50:03;1.10;;;1.00;;
9106;SDS011;4589;48.690;8.952;2022-09-27T06:52:30;1.30;;;1.20;;
9106;SDS011;4589;48.690;8.952;2022-09-27T06:54:56;1.23;;;1.13;;
9106;SDS011;4589;48.690;8.952;2022-09-27T06:57:21;1.23;;;1.13;;
9106;SDS011;4589;48.690;8.952;2022-09-27T07:00:05;2.37;;;1.50;;
9106;SDS011;4589;48.690;8.952;2022-09-27T07:02:50;1.27;;;1.17;;
9106;SDS011;4589;48.690;8.952;2022-09-27T07:05:17;1.13;;;1.00;;
9106;SDS011;4589;48.690;8.952;2022-09-27T07:07:43;1.00;;;0.90;;
9106;SDS011;4589;48.690;8.952;2022-09-27T07:10:11;1.10;;;1.00;;
9106;SDS011;4589;48.690;8.952;2022-09-27T07:12:36;1.10;;;0.90;;
9106;SDS011;4589;48.690;8.952;2022-09-27T07:15:03;1.00;;;0.90;;
9106;SDS011;4589;48.690;8.952;2022-09-27T07:17:29;1.00;;;0.90;;
9106;SDS011;4589;48.690;8.952;2022-09-27T07:19:55;1.00;;;0.90;;
9106;SDS011;4589;48.690;8.952;2022-09-27T07:22:21;2.30;;;1.00;;
9106;SDS011;4589;48.690;8.952;2022-09-27T07:24:47;1.57;;;1.13;;
9106;SDS011;4589;48.690;8.952;2022-09-27T07:27:12;3.83;;;1.10;;
9106;SDS011;4589;48.690;8.952;2022-09-27T07:29:39;1.20;;;0.97;;
9106;SDS011;4589;48.690;8.952;2022-09-27T07:32:05;1.10;;;1.00;;
9106;SDS011;4589;48.690;8.952;2022-09-27T07:34:34;1.83;;;1.10;;
9106;SDS011;4589;48.690;8.952;2022-09-27T07:36:59;1.83;;;1.20;;
9106;SDS011;4589;48.690;8.952;2022-09-27T07:39:28;1.70;;;1.30;;
9106;SDS011;4589;48.690;8.952;2022-09-27T07:41:53;9.13;;;1.27;;
9106;SDS011;4589;48.690;8.952;2022-09-27T07:44:19;1.20;;;1.10;;
9106;SDS011;4589;48.690;8.952;2022-09-27T07:46:45;1.20;;;1.10;;
9106;SDS011;4589;48.690;8.952;2022-09-27T07:49:11;1.40;;;1.00;;
9106;SDS011;4589;48.690;8.952;2022-09-27T07:51:36;6.93;;;2.67;;
9106;SDS011;4589;48.690;8.952;2022-09-27T07:54:03;1.40;;;1.30;;
9106;SDS011;4589;48.690;8.952;2022-09-27T07:56:28;3.47;;;2.50;;
9106;SDS011;4589;48.690;8.952;2022-09-27T07:58:54;3.57;;;1.87;;
9106;SDS011;4589;48.690;8.952;2022-09-27T08:01:20;2.13;;;1.40;;
9106;SDS011;4589;48.690;8.952;2022-09-27T08:03:46;1.63;;;1.00;;
9106;SDS011;4589;48.690;8.952;2022-09-27T08:06:12;3.27;;;1.70;;
9106;SDS011;4589;48.690;8.952;2022-09-27T08:08:38;1.17;;;0.97;;
9106;SDS011;4589;48.690;8.952;2022-09-27T08:11:12;1.67;;;1.50;;
9106;SDS011;4589;48.690;8.952;2022-09-27T08:13:42;2.30;;;1.50;;
9106;SDS011;4589;48.690;8.952;2022-09-27T08:16:09;4.20;;;1.90;;
9106;SDS011;4589;48.690;8.952;2022-09-27T08:18:38;2.80;;;1.77;;
9106;SDS011;4589;48.690;8.952;2022-09-27T08:21:04;6.70;;;2.30;;
9106;SDS011;4589;48.690;8.952;2022-09-27T08:23:30;3.90;;;1.97;;
9106;SDS011;4589;48.690;8.952;2022-09-27T08:25:56;2.00;;;1.40;;
9106;SDS011;4589;48.690;8.952;2022-09-27T08:28:22;3.07;;;1.83;;
9106;SDS011;4589;48.690;8.952;2022-09-27T08:30:49;2.60;;;1.33;;
9106;SDS011;4589;48.690;8.952;2022-09-27T08:33:17;5.57;;;1.37;;
9106;SDS011;4589;48.690;8.952;2022-09-27T08:35:43;2.40;;;0.97;;
9106;SDS011;4589;48.690;8.952;2022-09-27T08:38:09;2.33;;;1.23;;
9106;SDS011;4589;48.690;8.952;2022-09-27T08:45:58;1.87;;;0.90;;
9106;SDS011;4589;48.690;8.952;2022-09-27T08:48:26;2.27;;;1.10;;
9106;SDS011;4589;48.690;8.952;2022-09-27T08:50:53;5.10;;;1.30;;
9106;SDS011;4589;48.690;8.952;2022-09-27T08:53:21;1.10;;;0.90;;
9106;SDS011;4589;48.690;8.952;2022-09-27T08:55:50;1.73;;;0.80;;
9106;SDS011;4589;48.690;8.952;2022-09-27T09:00:50;1.47;;;1.10;;
9106;SDS011;4589;48.690;8.952;2022-09-27T09:03:19;1.10;;;1.00;;
9106;SDS011;4589;48.690;8.952;2022-09-27T09:25:22;1.40;;;0.80;;
9106;SDS011;4589;48.690;8.952;2022-09-27T09:31:03;1.90;;;1.03;;
9106;SDS011;4589;48.690;8.952;2022-09-27T09:33:45;1.73;;;0.90;;
9106;SDS011;4589;48.690;8.952;2022-09-27T09:36:27;1.67;;;1.10;;
9106;SDS011;4589;48.690;8.952;2022-09-27T09:39:01;1.50;;;1.10;;
9106;SDS011;4589;48.690;8.952;2022-09-27T09:41:30;7.20;;;1.30;;
9106;SDS011;4589;48.690;8.952;2022-09-27T09:46:35;2.33;;;1.10;;
9106;SDS011;4589;48.690;8.952;2022-09-27T09:49:23;1.40;;;1.10;;
9106;SDS011;4589;48.690;8.952;2022-09-27T09:51:57;2.13;;;1.13;;
9106;SDS011;4589;48.690;8.952;2022-09-27T09:54:32;3.40;;;1.67;;
9106;SDS011;4589;48.690;8.952;2022-09-27T09:57:07;3.10;;;1.37;;
9106;SDS011;4589;48.690;8.952;2022-09-27T09:59:44;1.50;;;1.00;;
9106;SDS011;4589;48.690;8.952;2022-09-27T10:04:55;2.00;;;1.13;;
9106;SDS011;4589;48.690;8.952;2022-09-27T10:07:22;1.30;;;1.20;;
9106;SDS011;4589;48.690;8.952;2022-09-27T10:09:49;1.77;;;1.43;;
9106;SDS011;4589;48.690;8.952;2022-09-27T10:12:18;1.17;;;0.90;;
9106;SDS011;4589;48.690;8.952;2022-09-27T10:14:44;2.27;;;1.37;;
9106;SDS011;4589;48.690;8.952;2022-09-27T10:17:13;3.60;;;1.50;;
9106;SDS011;4589;48.690;8.952;2022-09-27T10:19:42;2.90;;;1.33;;
9106;SDS011;4589;48.690;8.952;2022-09-27T10:22:11;2.43;;;1.70;;
9106;SDS011;4589;48.690;8.952;2022-09-27T10:25:20;3.17;;;1.30;;
9106;SDS011;4589;48.690;8.952;2022-09-27T10:28:13;1.97;;;1.40;;
9106;SDS011;4589;48.690;8.952;2022-09-27T10:30:27;1.97;;;1.30;;
9106;SDS011;4589;48.690;8.952;2022-09-27T10:32:55;3.17;;;1.60;;
9106;SDS011;4589;48.690;8.952;2022-09-27T10:37:55;1.60;;;1.50;;
9106;SDS011;4589;48.690;8.952;2022-09-27T10:40:41;2.23;;;1.50;;
9106;SDS011;4589;48.690;8.952;2022-09-27T10:46:15;8.13;;;1.80;;
9106;SDS011;4589;48.690;8.952;2022-09-27T10:48:43;1.70;;;1.50;;
9106;SDS011;4589;48.690;8.952;2022-09-27T10:51:21;1.80;;;1.30;;
9106;SDS011;4589;48.690;8.952;2022-09-27T10:53:50;1.80;;;1.30;;
9106;SDS011;4589;48.690;8.952;2022-09-27T10:56:27;1.40;;;1.20;;
9106;SDS011;4589;48.690;8.952;2022-09-27T10:58:53;1.97;;;1.50;;
9106;SDS011;4589;48.690;8.952;2022-09-27T11:01:20;1.20;;;1.00;;
9106;SDS011;4589;48.690;8.952;2022-09-27T11:03:56;1.50;;;1.40;;
9106;SDS011;4589;48.690;8.952;2022-09-27T11:08:50;2.50;;;1.57;;
9106;SDS011;4589;48.690;8.952;2022-09-27T11:11:18;2.80;;;1.57;;
9106;SDS011;4589;48.690;8.952;2022-09-27T11:14:04;2.00;;;1.30;;
9106;SDS011;4589;48.690;8.952;2022-09-27T11:21:57;1.80;;;1.57;;
9106;SDS011;4589;48.690;8.952;2022-09-27T11:42:58;1.40;;;1.30;;
9106;SDS011;4589;48.690;8.952;2022-09-27T11:45:44;1.60;;;1.40;;
9106;SDS011;4589;48.690;8.952;2022-09-27T11:48:16;3.00;;;1.30;;
9106;SDS011;4589;48.690;8.952;2022-09-27T12:01:55;4.07;;;1.70;;
9106;SDS011;4589;48.690;8.952;2022-09-27T12:06:54;1.70;;;1.50;;
9106;SDS011;4589;48.690;8.952;2022-09-27T12:09:24;1.40;;;1.20;;
9106;SDS011;4589;48.690;8.952;2022-09-27T12:11:57;1.87;;;1.30;;
9106;SDS011;4589;48.690;8.952;2022-09-27T12:14:28;1.93;;;1.40;;
9106;SDS011;4589;48.690;8.952;2022-09-27T12:16:58;2.00;;;1.20;;
9106;SDS011;4589;48.690;8.952;2022-09-27T12:19:25;1.30;;;1.20;;
9106;SDS011;4589;48.690;8.952;2022-09-27T12:21:53;1.40;;;1.30;;
9106;SDS011;4589;48.690;8.952;2022-09-27T12:24:21;1.97;;;1.27;;
9106;SDS011;4589;48.690;8.952;2022-09-27T12:26:52;2.13;;;1.27;;
9106;SDS011;4589;48.690;8.952;2022-09-27T12:29:28;1.63;;;1.53;;
9106;SDS011;4589;48.690;8.952;2022-09-27T12:31:58;1.60;;;1.33;;
9106;SDS011;4589;48.690;8.952;2022-09-27T12:34:29;2.50;;;2.30;;
9106;SDS011;4589;48.690;8.952;2022-09-27T12:36:59;1.70;;;1.30;;
9106;SDS011;4589;48.690;8.952;2022-09-27T12:39:27;1.43;;;1.20;;
9106;SDS011;4589;48.690;8.952;2022-09-27T12:42:09;1.70;;;1.30;;
9106;SDS011;4589;48.690;8.952;2022-09-27T12:44:37;1.50;;;1.40;;
9106;SDS011;4589;48.690;8.952;2022-09-27T12:48:05;1.30;;;1.20;;
9106;SDS011;4589;48.690;8.952;2022-09-27T12:50:18;1.30;;;0.97;;
9106;SDS011;4589;48.690;8.952;2022-09-27T12:52:52;2.07;;;1.00;;
9106;SDS011;4589;48.690;8.952;2022-09-27T13:01:19;1.77;;;0.90;;
9106;SDS011;4589;48.690;8.952;2022-09-27T13:06:42;1.20;;;1.10;;
9106;SDS011;4589;48.690;8.952;2022-09-27T13:12:28;2.43;;;1.23;;
9106;SDS011;4589;48.690;8.952;2022-09-27T13:15:02;1.00;;;0.87;;
9106;SDS011;4589;48.690;8.952;2022-09-27T13:22:53;2.37;;;1.00;;
9106;SDS011;4589;48.690;8.952;2022-09-27T13:31:14;1.20;;;1.00;;
9106;SDS011;4589;48.690;8.952;2022-09-27T13:33:50;1.50;;;1.00;;
9106;SDS011;4589;48.690;8.952;2022-09-27T13:44:16;1.10;;;1.00;;
9106;SDS011;4589;48.690;8.952;2022-09-27T13:49:42;2.20;;;1.10;;
9106;SDS011;4589;48.690;8.952;2022-09-27T13:52:29;1.40;;;1.00;;
9106;SDS011;4589;48.690;8.952;2022-09-27T13:55:03;1.20;;;1.10;;
9106;SDS011;4589;48.690;8.952;2022-09-27T13:57:55;2.07;;;1.07;;
9106;SDS011;4589;48.690;8.952;2022-09-27T14:00:23;1.73;;;1.07;;
9106;SDS011;4589;48.690;8.952;2022-09-27T14:05:40;1.20;;;1.07;;
9106;SDS011;4589;48.690;8.952;2022-09-27T14:08:43;1.83;;;1.00;;
9106;SDS011;4589;48.690;8.952;2022-09-27T14:11:14;2.40;;;1.00;;
9106;SDS011;4589;48.690;8.952;2022-09-27T14:13:42;4.00;;;0.90;;
9106;SDS011;4589;48.690;8.952;2022-09-27T14:16:12;4.10;;;1.23;;
9106;SDS011;4589;48.690;8.952;2022-09-27T14:23:52;1.10;;;0.90;;
9106;SDS011;4589;48.690;8.952;2022-09-27T14:26:22;1.20;;;0.80;;
9106;SDS011;4589;48.690;8.952;2022-09-27T14:28:49;1.50;;;1.10;;
9106;SDS011;4589;48.690;8.952;2022-09-27T14:31:17;1.20;;;1.00;;
9106;SDS011;4589;48.690;8.952;2022-09-27T14:33:47;3.60;;;1.00;;
9106;SDS011;4589;48.690;8.952;2022-09-27T14:36:25;1.10;;;1.00;;
9106;SDS011;4589;48.690;8.952;2022-09-27T14:39:13;1.40;;;0.90;;
9106;SDS011;4589;48.690;8.952;2022-09-27T14:41:55;1.40;;;0.93;;
9106;SDS011;4589;48.690;8.952;2022-09-27T14:44:21;1.20;;;0.83;;
9106;SDS011;4589;48.690;8.952;2022-09-27T14:46:47;1.00;;;0.90;;
9106;SDS011;4589;48.690;8.952;2022-09-27T14:49:31;2.50;;;0.97;;
9106;SDS011;4589;48.690;8.952;2022-09-27T14:51:57;3.33;;;1.10;;
9106;SDS011;4589;48.690;8.952;2022-09-27T14:54:26;0.90;;;0.70;;
9106;SDS011;4589;48.690;8.952;2022-09-27T14:56:54;1.13;;;0.87;;
9106;SDS011;4589;48.690;8.952;2022-09-27T15:01:55;1.50;;;1.10;;
9106;SDS011;4589;48.690;8.952;2022-09-27T15:04:24;1.73;;;0.80;;
9106;SDS011;4589;48.690;8.952;2022-09-27T15:06:51;1.27;;;0.90;;
9106;SDS011;4589;48.690;8.952;2022-09-27T15:09:18;1.10;;;1.00;;
9106;SDS011;4589;48.690;8.952;2022-09-27T15:11:46;2.07;;;1.40;;
9106;SDS011;4589;48.690;8.952;2022-09-27T15:14:16;4.40;;;1.50;;
9106;SDS011;4589;48.690;8.952;2022-09-27T15:16:47;1.30;;;1.00;;
9106;SDS011;4589;48.690;8.952;2022-09-27T15:19:14;2.17;;;1.50;;
9106;SDS011;4589;48.690;8.952;2022-09-27T15:21:43;2.03;;;1.00;;
9106;SDS011;4589;48.690;8.952;2022-09-27T15:26:53;1.60;;;1.17;;
9106;SDS011;4589;48.690;8.952;2022-09-27T15:29:20;2.23;;;1.17;;
9106;SDS011;4589;48.690;8.952;2022-09-27T15:31:58;1.30;;;1.17;;
9106;SDS011;4589;48.690;8.952;2022-09-27T15:34:25;1.90;;;1.10;;
9106;SDS011;4589;48.690;8.952;2022-09-27T15:36:57;1.20;;;1.10;;
9106;SDS011;4589;48.690;8.952;2022-09-27T15:44:42;2.33;;;1.43;;
9106;SDS011;4589;48.690;8.952;2022-09-27T15:47:45;1.20;;;1.10;;
9106;SDS011;4589;48.690;8.952;2022-09-27T15:52:45;2.37;;;1.40;;
9106;SDS011;4589;48.690;8.952;2022-09-27T15:55:14;1.57;;;1.23;;
9106;SDS011;4589;48.690;8.952;2022-09-27T15:57:41;4.07;;;1.60;;
9106;SDS011;4589;48.690;8.952;2022-09-27T16:00:12;1.83;;;1.37;;
9106;SDS011;4589;48.690;8.952;2022-09-27T16:02:42;1.57;;;1.20;;
9106;SDS011;4589;48.690;8.952;2022-09-27T16:05:08;1.10;;;0.90;;
9106;SDS011;4589;48.690;8.952;2022-09-27T16:07:34;1.93;;;1.40;;
9106;SDS011;4589;48.690;8.952;2022-09-27T16:10:00;1.43;;;1.33;;
9106;SDS011;4589;48.690;8.952;2022-09-27T16:12:26;1.90;;;1.33;;
9106;SDS011;4589;48.690;8.952;2022-09-27T16:14:54;2.07;;;1.10;;
9106;SDS011;4589;48.690;8.952;2022-09-27T16:17:20;3.67;;;1.80;;
9106;SDS011;4589;48.690;8.952;2022-09-27T16:19:46;3.43;;;1.00;;
9106;SDS011;4589;48.690;8.952;2022-09-27T16:22:14;1.70;;;1.17;;
9106;SDS011;4589;48.690;8.952;2022-09-27T16:24:40;2.63;;;1.80;;
9106;SDS011;4589;48.690;8.952;2022-09-27T16:27:05;3.17;;;1.80;;
9106;SDS011;4589;48.690;8.952;2022-09-27T16:29:31;1.30;;;1.20;;
9106;SDS011;4589;48.690;8.952;2022-09-27T16:31:57;2.03;;;1.20;;
9106;SDS011;4589;48.690;8.952;2022-09-27T16:34:23;1.97;;;1.10;;
9106;SDS011;4589;48.690;8.952;2022-09-27T16:36:49;1.40;;;1.30;;
9106;SDS011;4589;48.690;8.952;2022-09-27T16:39:15;1.43;;;1.10;;
9106;SDS011;4589;48.690;8.952;2022-09-27T16:41:41;6.90;;;1.20;;
9106;SDS011;4589;48.690;8.952;2022-09-27T16:44:11;3.20;;;1.30;;
9106;SDS011;4589;48.690;8.952;2022-09-27T16:46:40;1.20;;;1.00;;
9106;SDS011;4589;48.690;8.952;2022-09-27T16:49:06;1.40;;;1.00;;
9106;SDS011;4589;48.690;8.952;2022-09-27T16:51:52;1.93;;;1.00;;
9106;SDS011;4589;48.690;8.952;2022-09-27T16:54:23;1.10;;;0.90;;
9106;SDS011;4589;48.690;8.952;2022-09-27T16:56:51;1.20;;;1.03;;
9106;SDS011;4589;48.690;8.952;2022-09-27T16:59:16;1.77;;;1.00;;
9106;SDS011;4589;48.690;8.952;2022-09-27T17:01:42;2.33;;;1.37;;
9106;SDS011;4589;48.690;8.952;2022-09-27T17:04:07;1.50;;;1.03;;
9106;SDS011;4589;48.690;8.952;2022-09-27T17:06:33;1.50;;;1.10;;
9106;SDS011;4589;48.690;8.952;2022-09-27T17:09:03;1.37;;;1.13;;
9106;SDS011;4589;48.690;8.952;2022-09-27T17:11:29;1.00;;;0.90;;
9106;SDS011;4589;48.690;8.952;2022-09-27T17:13:55;2.60;;;1.20;;
9106;SDS011;4589;48.690;8.952;2022-09-27T17:16:21;1.77;;;1.30;;
9106;SDS011;4589;48.690;8.952;2022-09-27T17:18:48;1.67;;;1.10;;
9106;SDS011;4589;48.690;8.952;2022-09-27T17:21:13;2.00;;;1.20;;
9106;SDS011;4589;48.690;8.952;2022-09-27T17:23:39;2.10;;;1.33;;
9106;SDS011;4589;48.690;8.952;2022-09-27T17:26:07;1.30;;;1.10;;
9106;SDS011;4589;48.690;8.952;2022-09-27T17:28:34;1.80;;;1.10;;
9106;SDS011;4589;48.690;8.952;2022-09-27T17:31:05;1.73;;;1.00;;
9106;SDS011;4589;48.690;8.952;2022-09-27T17:33:33;1.50;;;1.10;;
9106;SDS011;4589;48.690;8.952;2022-09-27T17:36:05;3.13;;;1.40;;
9106;SDS011;4589;48.690;8.952;2022-09-27T17:38:32;1.50;;;1.40;;
9106;SDS011;4589;48.690;8.952;2022-09-27T17:40:59;3.40;;;1.40;;
9106;SDS011;4589;48.690;8.952;2022-09-27T17:43:25;1.30;;;1.20;;
9106;SDS011;4589;48.690;8.952;2022-09-27T17:45:52;1.37;;;1.17;;
9106;SDS011;4589;48.690;8.952;2022-09-27T17:48:18;1.20;;;1.10;;
9106;SDS011;4589;48.690;8.952;2022-09-27T17:51:02;1.70;;;1.30;;
9106;SDS011;4589;48.690;8.952;2022-09-27T17:53:28;1.13;;;1.00;;
9106;SDS011;4589;48.690;8.952;2022-09-27T17:55:59;1.87;;;1.13;;
9106;SDS011;4589;48.690;8.952;2022-09-27T17:58:25;1.40;;;1.10;;
9106;SDS011;4589;48.690;8.952;2022-09-27T18:00:51;1.40;;;1.30;;
9106;SDS011;4589;48.690;8.952;2022-09-27T18:03:17;1.30;;;1.20;;
9106;SDS011;4589;48.690;8.952;2022-09-27T18:05:44;3.20;;;1.00;;
9106;SDS011;4589;48.690;8.952;2022-09-27T18:08:09;1.23;;;1.13;;
9106;SDS011;4589;48.690;8.952;2022-09-27T18:10:35;1.60;;;1.50;;
9106;SDS011;4589;48.690;8.952;2022-09-27T18:13:02;2.13;;;1.40;;
9106;SDS011;4589;48.690;8.952;2022-09-27T18:15:29;1.70;;;1.13;;
9106;SDS011;4589;48.690;8.952;2022-09-27T18:17:56;1.40;;;1.30;;
9106;SDS011;4589;48.690;8.952;2022-09-27T18:20:22;2.70;;;1.40;;
9106;SDS011;4589;48.690;8.952;2022-09-27T18:22:48;2.23;;;1.77;;
9106;SDS011;4589;48.690;8.952;2022-09-27T18:25:15;2.67;;;1.70;;
9106;SDS011;4589;48.690;8.952;2022-09-27T18:27:40;2.27;;;1.70;;
9106;SDS011;4589;48.690;8.952;2022-09-27T18:30:08;1.60;;;1.50;;
9106;SDS011;4589;48.690;8.952;2022-09-27T18:32:34;1.87;;;1.30;;
9106;SDS011;4589;48.690;8.952;2022-09-27T18:34:59;1.53;;;1.10;;